Time;durP1;ratioP1;P1;durP2;ratioP2;P2;SDS_P1;SDS_P2;PMS_P1;PMS_P2;Temp;Humidity;BMP_temperature;BMP_pressure;BME280_temperature;BME280_humidity;BME280_pressure;Samples;Min_cycle;Max_cycle;Signal;HPM_P1;HPM_P2
2021/12/03 00:01:14;;;;;;;1.77;1.50;;;;;;;8.16;69.73;100026.25;5092869;28;20088;-59
2021/12/03 00:03:42;;;;;;;1.30;1.20;;;;;;;8.14;69.89;100033.34;5098669;28;20113;-59
2021/12/03 00:06:08;;;;;;;1.88;1.40;;;;;;;8.10;69.93;100037.91;5091347;28;20054;-59
2021/12/03 00:08:35;;;;;;;2.30;1.80;;;;;;;8.08;70.11;100042.38;5099500;28;20055;-65
2021/12/03 00:11:03;;;;;;;2.08;1.88;;;;;;;8.07;70.11;100042.47;5097576;28;20407;-59
2021/12/03 00:13:32;;;;;;;2.20;1.67;;;;;;;8.06;70.26;100041.59;5105723;28;20044;-59
2021/12/03 00:16:00;;;;;;;3.80;2.90;;;;;;;8.08;70.34;100044.97;5091478;28;20040;-59
2021/12/03 00:18:26;;;;;;;3.08;2.25;;;;;;;8.08;70.16;100041.53;5099383;28;20047;-59
2021/12/03 00:20:54;;;;;;;2.75;2.03;;;;;;;8.09;70.29;100048.44;5107580;28;20055;-58
2021/12/03 00:23:22;;;;;;;2.33;1.60;;;;;;;8.10;70.10;100052.72;5095419;28;20396;-59
2021/12/03 00:25:49;;;;;;;2.83;1.77;;;;;;;8.09;70.14;100051.88;5108719;27;20505;-59
2021/12/03 00:28:16;;;;;;;2.45;1.80;;;;;;;8.07;70.32;100056.34;5095000;28;20044;-59
2021/12/03 00:30:43;;;;;;;2.92;1.83;;;;;;;8.07;70.36;100065.97;5109164;28;20075;-65
2021/12/03 00:33:09;;;;;;;2.08;1.75;;;;;;;8.05;70.39;100073.03;5094258;28;20044;-58
2021/12/03 00:35:36;;;;;;;3.80;2.28;;;;;;;8.03;70.49;100073.16;5094614;28;20514;-59
2021/12/03 00:38:03;;;;;;;2.42;1.60;;;;;;;8.05;70.45;100078.28;5101406;28;20046;-58
2021/12/03 00:40:34;;;;;;;2.45;1.73;;;;;;;8.04;70.55;100081.81;5101930;28;20096;-58
2021/12/03 00:43:01;;;;;;;3.67;1.60;;;;;;;8.02;70.65;100094.97;5094957;28;20044;-59
2021/12/03 00:45:30;;;;;;;2.28;1.50;;;;;;;8.03;70.70;100098.44;5102010;28;20044;-59
2021/12/03 00:47:57;;;;;;;1.98;1.40;;;;;;;8.00;70.74;100105.50;5104168;28;20051;-59
2021/12/03 00:50:25;;;;;;;1.70;1.20;;;;;;;8.00;70.73;100115.13;5101640;28;20047;-58
2021/12/03 00:52:52;;;;;;;1.83;1.30;;;;;;;7.99;71.00;100118.66;5103401;28;20061;-58
2021/12/03 00:55:22;;;;;;;1.90;1.40;;;;;;;7.98;70.95;100115.19;5103120;28;20040;-59
2021/12/03 00:57:49;;;;;;;2.30;1.60;;;;;;;7.99;71.10;100123.91;5102351;28;20048;-59
2021/12/03 01:00:22;;;;;;;1.83;1.45;;;;;;;7.97;71.07;100125.75;5097377;28;20406;-59
2021/12/03 01:02:55;;;;;;;2.13;1.55;;;;;;;7.97;71.00;100129.22;5106411;28;20050;-59
2021/12/03 01:05:23;;;;;;;2.55;1.63;;;;;;;7.96;71.15;100130.13;5104157;27;20043;-58
2021/12/03 01:07:50;;;;;;;1.65;1.40;;;;;;;7.98;71.15;100136.09;5100784;28;20040;-58
2021/12/03 01:10:18;;;;;;;1.50;1.35;;;;;;;7.96;71.36;100148.41;5098469;28;20075;-59
2021/12/03 01:12:45;;;;;;;3.15;1.23;;;;;;;7.94;71.39;100145.03;5103483;28;20492;-59
2021/12/03 01:15:16;;;;;;;1.65;1.20;;;;;;;7.92;71.45;100154.75;5108377;28;20044;-60
2021/12/03 01:17:42;;;;;;;1.40;1.25;;;;;;;7.90;71.60;100142.66;5104101;28;20506;-59
2021/12/03 01:20:11;;;;;;;1.52;1.27;;;;;;;7.90;71.47;100158.34;5097910;28;20048;-59
2021/12/03 01:22:38;;;;;;;1.23;1.10;;;;;;;7.89;71.49;100165.34;5102378;28;20081;-65
2021/12/03 01:25:08;;;;;;;1.67;1.30;;;;;;;7.88;71.63;100155.00;5099331;28;20052;-59
2021/12/03 01:27:35;;;;;;;1.63;1.33;;;;;;;7.88;71.64;100158.44;5107086;28;20488;-59
2021/12/03 01:30:04;;;;;;;5.57;1.20;;;;;;;7.89;71.57;100160.13;5093633;28;20403;-59
2021/12/03 01:32:31;;;;;;;2.53;1.33;;;;;;;7.89;71.58;100159.28;5107831;28;20043;-59
2021/12/03 01:34:57;;;;;;;1.38;1.25;;;;;;;7.89;71.50;100156.69;5093665;28;20047;-60
2021/12/03 01:37:24;;;;;;;1.60;1.25;;;;;;;7.91;71.39;100166.13;5107864;28;20058;-59
2021/12/03 01:39:51;;;;;;;2.22;1.67;;;;;;;7.89;71.32;100165.34;5093704;28;20054;-59
2021/12/03 01:42:18;;;;;;;1.40;1.23;;;;;;;7.89;71.65;100169.75;5106883;28;20043;-60
2021/12/03 01:44:45;;;;;;;1.50;1.30;;;;;;;7.89;71.46;100165.34;5105271;28;20077;-59
2021/12/03 01:47:11;;;;;;;2.78;1.40;;;;;;;7.90;71.50;100174.03;5093836;28;20481;-58
2021/12/03 01:49:38;;;;;;;1.67;1.17;;;;;;;7.89;71.56;100174.97;5107060;28;20043;-58
2021/12/03 01:52:05;;;;;;;1.58;1.10;;;;;;;7.91;71.70;100175.72;5093096;28;20396;-59
2021/12/03 01:54:32;;;;;;;1.48;1.35;;;;;;;7.92;71.54;100182.63;5098458;28;20069;-58
2021/12/03 01:56:59;;;;;;;1.67;1.30;;;;;;;7.91;71.52;100181.78;5102407;28;20445;-58
2021/12/03 01:59:26;;;;;;;1.90;1.55;;;;;;;7.90;71.60;100185.31;5093516;28;20587;-59
2021/12/03 02:01:53;;;;;;;1.48;1.30;;;;;;;7.89;71.64;100190.66;5102903;28;20047;-60
2021/12/03 02:04:20;;;;;;;1.45;1.25;;;;;;;7.88;71.89;100184.56;5097310;27;20514;-62
2021/12/03 02:06:47;;;;;;;2.33;1.38;;;;;;;7.86;71.80;100189.03;5100896;28;20044;-65
2021/12/03 02:09:14;;;;;;;2.38;1.52;;;;;;;7.85;71.90;100185.56;5098612;28;20470;-59
2021/12/03 02:11:41;;;;;;;1.88;1.67;;;;;;;7.86;71.87;100196.88;5095018;28;20048;-59
2021/12/03 02:14:07;;;;;;;1.80;1.30;;;;;;;7.85;72.01;100197.81;5104969;28;20047;-59
2021/12/03 02:16:34;;;;;;;1.60;1.25;;;;;;;7.84;72.16;100201.34;5093153;28;20059;-62
2021/12/03 02:19:01;;;;;;;3.08;1.40;;;;;;;7.85;71.97;100208.25;5112122;28;20051;-65
2021/12/03 02:21:28;;;;;;;1.58;1.38;;;;;;;7.85;72.16;100227.38;5100257;28;20048;-59
2021/12/03 02:23:56;;;;;;;1.63;1.27;;;;;;;7.89;71.82;100224.59;5097521;28;20517;-59
2021/12/03 02:26:23;;;;;;;1.52;1.35;;;;;;;7.85;72.00;100232.59;5101682;28;20050;-58
2021/12/03 02:28:51;;;;;;;1.50;1.40;;;;;;;7.88;71.90;100241.19;5092630;28;20093;-59
2021/12/03 02:31:20;;;;;;;2.67;1.50;;;;;;;7.88;71.89;100242.03;5102587;28;20062;-59
2021/12/03 02:33:50;;;;;;;1.80;1.33;;;;;;;7.87;72.04;100232.50;5096436;28;20048;-64
2021/12/03 02:36:18;;;;;;;1.70;1.38;;;;;;;7.86;71.88;100246.50;5091757;28;20040;-58
2021/12/03 02:38:45;;;;;;;1.60;1.40;;;;;;;7.85;72.12;100250.03;5101549;28;20048;-60
2021/12/03 02:41:13;;;;;;;1.95;1.60;;;;;;;7.88;72.30;100262.09;5094233;28;20078;-58
2021/12/03 02:43:40;;;;;;;1.55;1.42;;;;;;;7.89;72.23;100262.00;5098812;28;20044;-59
2021/12/03 02:46:07;;;;;;;1.55;1.45;;;;;;;7.86;72.13;100267.41;5101432;28;20039;-64
2021/12/03 02:48:36;;;;;;;2.00;1.80;;;;;;;7.85;72.36;100271.78;5099518;28;20085;-59
2021/12/03 02:51:04;;;;;;;1.92;1.70;;;;;;;7.85;72.21;100291.84;5095576;28;20051;-65
2021/12/03 02:53:31;;;;;;;3.17;2.00;;;;;;;7.85;72.30;100292.66;5097370;28;20070;-60
2021/12/03 02:55:57;;;;;;;2.00;1.73;;;;;;;7.79;72.58;100303.44;5099974;28;20052;-59
2021/12/03 02:58:24;;;;;;;1.45;1.35;;;;;;;7.81;72.56;100301.59;5099406;28;20040;-58
2021/12/03 03:00:53;;;;;;;1.92;1.77;;;;;;;7.84;72.43;100300.59;5098150;28;20492;-58
2021/12/03 03:03:21;;;;;;;2.30;1.70;;;;;;;7.84;72.61;100295.38;5100676;28;20055;-58
2021/12/03 03:05:57;;;;;;;2.70;1.60;;;;;;;7.84;72.40;100314.50;5097142;28;20036;-59
2021/12/03 03:08:25;;;;;;;2.15;1.85;;;;;;;7.84;72.63;100321.50;5091332;28;20048;-58
2021/12/03 03:10:53;;;;;;;3.60;1.90;;;;;;;7.86;72.38;100327.50;5101578;28;20047;-59
2021/12/03 03:13:21;;;;;;;2.15;1.80;;;;;;;7.86;72.59;100332.72;5097888;28;20048;-59
2021/12/03 03:15:48;;;;;;;1.95;1.60;;;;;;;7.85;72.51;100341.47;5104336;28;20407;-64
2021/12/03 03:18:17;;;;;;;2.90;1.92;;;;;;;7.84;72.41;100347.63;5091909;28;20059;-59
2021/12/03 03:20:46;;;;;;;5.40;3.45;;;;;;;7.84;72.45;100348.44;5105529;28;20040;-59
2021/12/03 03:23:14;;;;;;;6.80;4.07;;;;;;;7.84;72.26;100360.69;5091458;28;20055;-61
2021/12/03 03:25:42;;;;;;;5.38;3.75;;;;;;;7.84;72.24;100365.91;5106349;28;20101;-63
2021/12/03 03:28:11;;;;;;;4.20;3.42;;;;;;;7.82;72.28;100360.75;5091990;28;20044;-63
2021/12/03 03:30:40;;;;;;;4.30;3.25;;;;;;;7.81;72.35;100358.22;5106071;28;20040;-60
2021/12/03 03:33:07;;;;;;;4.10;3.03;;;;;;;7.82;72.24;100360.75;5091830;28;20075;-58
2021/12/03 03:35:34;;;;;;;6.05;3.67;;;;;;;7.81;72.35;100355.63;5105966;28;20047;-59
2021/12/03 03:38:02;;;;;;;5.53;4.10;;;;;;;7.79;72.54;100362.69;5091581;28;20127;-58
2021/12/03 03:40:29;;;;;;;5.55;4.30;;;;;;;7.78;72.38;100358.38;5099752;28;20469;-59
2021/12/03 03:43:03;;;;;;;5.70;4.60;;;;;;;7.78;72.41;100361.00;5104353;28;20044;-59
2021/12/03 03:45:31;;;;;;;8.25;4.90;;;;;;;7.78;72.55;100359.25;5092260;28;20508;-64
2021/12/03 03:47:58;;;;;;;7.47;4.72;;;;;;;7.79;72.47;100363.50;5104944;28;20048;-62
2021/12/03 03:50:26;;;;;;;10.38;5.13;;;;;;;7.78;72.44;100376.66;5091898;28;20123;-60
2021/12/03 03:52:54;;;;;;;8.20;5.22;;;;;;;7.80;72.37;100369.59;5107772;28;20051;-59
2021/12/03 03:55:23;;;;;;;10.68;5.97;;;;;;;7.79;72.62;100378.34;5095407;28;20048;-58
2021/12/03 03:57:52;;;;;;;12.40;8.27;;;;;;;7.81;72.45;100376.53;5110055;28;20044;-59
2021/12/03 04:00:25;;;;;;;14.05;9.43;;;;;;;7.80;72.54;100380.88;5095456;28;20048;-59
2021/12/03 04:02:51;;;;;;;15.52;9.43;;;;;;;7.79;72.48;100376.56;5104798;28;20059;-58
2021/12/03 04:05:19;;;;;;;11.70;8.77;;;;;;;7.77;72.63;100385.41;5101040;28;20051;-59
2021/12/03 04:07:45;;;;;;;13.60;9.95;;;;;;;7.76;72.72;100384.59;5096179;28;20190;-58
2021/12/03 04:10:12;;;;;;;15.77;9.77;;;;;;;7.74;72.93;100385.59;5099780;28;20487;-61
2021/12/03 04:12:39;;;;;;;14.02;10.07;;;;;;;7.74;72.75;100391.63;5103100;28;20050;-59
2021/12/03 04:15:09;;;;;;;16.70;10.80;;;;;;;7.77;72.72;100393.25;5095516;28;20044;-58
2021/12/03 04:17:36;;;;;;;16.55;10.93;;;;;;;7.74;72.74;100390.81;5100777;28;20044;-58
2021/12/03 04:20:05;;;;;;;15.52;10.38;;;;;;;7.74;72.81;100403.88;5096778;28;20044;-58
2021/12/03 04:22:33;;;;;;;14.65;9.95;;;;;;;7.73;73.05;100410.00;5099447;28;20040;-58
2021/12/03 04:25:00;;;;;;;14.85;9.85;;;;;;;7.71;72.92;100407.47;5098105;28;20059;-58
2021/12/03 04:27:28;;;;;;;17.45;10.13;;;;;;;7.71;73.02;100414.44;5097770;28;20061;-62
2021/12/03 04:29:54;;;;;;;12.80;9.13;;;;;;;7.70;72.98;100420.63;5099972;28;20389;-59
2021/12/03 04:32:24;;;;;;;12.65;9.65;;;;;;;7.67;73.08;100430.28;5096163;28;20073;-60
2021/12/03 04:34:53;;;;;;;14.68;9.13;;;;;;;7.64;73.00;100433.06;5101046;28;20397;-59
2021/12/03 04:37:21;;;;;;;13.52;9.45;;;;;;;7.64;72.87;100435.66;5094751;28;20044;-61
2021/12/03 04:39:48;;;;;;;15.57;9.70;;;;;;;7.61;72.84;100445.41;5102031;28;20040;-59
2021/12/03 04:42:14;;;;;;;15.30;10.32;;;;;;;7.59;72.65;100447.25;5107333;28;20075;-58
2021/12/03 04:44:41;;;;;;;17.80;10.70;;;;;;;7.57;72.72;100459.53;5110592;28;20044;-58
2021/12/03 04:47:08;;;;;;;16.33;10.70;;;;;;;7.56;72.72;100457.84;5097214;28;20043;-58
2021/12/03 04:49:35;;;;;;;15.63;10.88;;;;;;;7.60;72.52;100462.84;5097755;28;20044;-59
2021/12/03 04:52:03;;;;;;;14.77;10.52;;;;;;;7.59;72.81;100474.22;5098562;27;20506;-59
2021/12/03 04:54:30;;;;;;;19.17;13.15;;;;;;;7.57;72.84;100473.44;5095748;28;20494;-65
2021/12/03 04:56:57;;;;;;;19.70;13.27;;;;;;;7.60;72.70;100486.34;5100420;28;20121;-59
2021/12/03 04:59:24;;;;;;;21.17;13.75;;;;;;;7.61;72.67;100487.19;5093836;28;20058;-59
2021/12/03 05:01:55;;;;;;;17.40;12.38;;;;;;;7.63;72.70;100487.94;5102276;28;20043;-59
2021/12/03 05:04:22;;;;;;;18.35;11.90;;;;;;;7.63;72.74;100494.03;5092522;28;20055;-58
2021/12/03 05:06:55;;;;;;;15.85;11.43;;;;;;;7.64;72.79;100495.72;5092184;28;20549;-64
2021/12/03 05:09:22;;;;;;;19.13;12.30;;;;;;;7.63;72.96;100494.03;5091519;28;20476;-59
2021/12/03 05:11:50;;;;;;;20.20;13.73;;;;;;;7.63;72.84;100501.00;5107682;27;20491;-58
2021/12/03 05:14:17;;;;;;;20.67;13.88;;;;;;;7.64;72.91;100495.72;5090808;28;20121;-58
2021/12/03 05:16:45;;;;;;;20.92;14.65;;;;;;;7.61;72.96;100495.03;5104162;28;20048;-59
2021/12/03 05:19:12;;;;;;;21.77;15.57;;;;;;;7.64;72.87;100508.78;5098137;28;20100;-65
2021/12/03 05:21:39;;;;;;;23.83;15.60;;;;;;;7.63;73.10;100514.06;5101236;28;20419;-58
2021/12/03 05:24:07;;;;;;;23.88;16.92;;;;;;;7.61;73.09;100511.53;5098119;28;20048;-58
2021/12/03 05:26:35;;;;;;;27.05;18.20;;;;;;;7.65;73.11;100522.69;5102925;28;20044;-59
2021/12/03 05:29:03;;;;;;;25.45;16.52;;;;;;;7.65;73.02;100526.13;5095736;28;20047;-58
2021/12/03 05:31:30;;;;;;;23.92;16.00;;;;;;;7.64;72.97;100527.06;5099324;28;20040;-59
2021/12/03 05:33:58;;;;;;;23.98;16.70;;;;;;;7.64;73.10;100529.69;5092414;28;20419;-64
2021/12/03 05:36:25;;;;;;;27.27;17.20;;;;;;;7.66;73.18;100534.81;5099776;28;20051;-59
2021/12/03 05:38:52;;;;;;;22.38;16.45;;;;;;;7.66;73.12;100530.44;5095639;28;20496;-58
2021/12/03 05:41:32;;;;;;;24.85;16.63;;;;;;;7.68;73.05;100546.03;5100540;28;20059;-59
2021/12/03 05:44:00;;;;;;;24.00;16.98;;;;;;;7.67;73.16;100547.81;5103574;28;20048;-59
2021/12/03 05:46:27;;;;;;;25.63;16.45;;;;;;;7.66;73.25;100551.34;5097677;28;20054;-59
2021/12/03 05:48:54;;;;;;;25.00;16.33;;;;;;;7.66;73.18;100558.34;5095373;28;20048;-58
2021/12/03 05:51:20;;;;;;;27.70;16.70;;;;;;;7.68;73.02;100559.09;5096750;28;20047;-59
2021/12/03 05:53:47;;;;;;;23.73;15.90;;;;;;;7.67;73.23;100558.25;5104262;28;20043;-64
2021/12/03 05:56:14;;;;;;;22.52;15.48;;;;;;;7.67;73.10;100566.09;5105204;28;20047;-61
2021/12/03 05:58:41;;;;;;;23.58;15.85;;;;;;;7.68;72.83;100574.75;5105834;28;20764;-58
2021/12/03 06:01:16;;;;;;;21.73;15.07;;;;;;;7.65;73.14;100565.31;5092650;28;20039;-57
2021/12/03 06:03:46;;;;;;;21.13;15.20;;;;;;;7.63;72.87;100568.91;5101693;28;20130;-60
2021/12/03 06:06:14;;;;;;;21.40;15.35;;;;;;;7.61;73.09;100574.22;5098026;28;20059;-60
2021/12/03 06:08:42;;;;;;;21.73;15.27;;;;;;;7.66;72.83;100582.66;5101963;28;20047;-60
2021/12/03 06:11:08;;;;;;;20.90;14.52;;;;;;;7.65;72.92;100586.19;5097725;28;20519;-60
2021/12/03 06:13:39;;;;;;;24.80;15.85;;;;;;;7.65;72.79;100590.59;5090641;28;20044;-60
2021/12/03 06:16:11;;;;;;;23.25;16.08;;;;;;;7.63;72.82;100595.03;5089289;28;20492;-60
2021/12/03 06:18:38;;;;;;;22.25;14.75;;;;;;;7.66;72.65;100598.34;5089859;28;20046;-57
2021/12/03 06:21:07;;;;;;;20.90;14.95;;;;;;;7.66;72.62;100606.19;5088977;28;20036;-65
2021/12/03 06:23:34;;;;;;;22.75;15.40;;;;;;;7.65;72.82;100612.31;5101489;28;20043;-58
2021/12/03 06:26:02;;;;;;;19.90;15.10;;;;;;;7.69;72.71;100615.63;5093408;28;20054;-57
2021/12/03 06:28:31;;;;;;;23.48;15.20;;;;;;;7.69;72.73;100623.47;5105809;28;20063;-58
2021/12/03 06:31:03;;;;;;;24.00;15.23;;;;;;;7.64;72.80;100621.09;5109278;28;20055;-58
2021/12/03 06:33:29;;;;;;;23.58;15.77;;;;;;;7.67;72.66;100622.72;5108957;28;20130;-64
2021/12/03 06:35:56;;;;;;;23.60;16.30;;;;;;;7.65;72.80;100632.38;5109141;28;20055;-57
2021/12/03 06:38:23;;;;;;;23.67;15.80;;;;;;;7.66;72.84;100645.34;5095331;28;20055;-57
2021/12/03 06:40:52;;;;;;;24.38;16.00;;;;;;;7.68;72.98;100645.28;5089710;28;20306;-56
2021/12/03 06:43:19;;;;;;;23.58;15.20;;;;;;;7.71;73.05;100652.13;5097301;28;20054;-57
2021/12/03 06:45:47;;;;;;;22.02;15.07;;;;;;;7.73;72.75;100647.69;5101907;28;20079;-57
2021/12/03 06:48:14;;;;;;;22.40;15.07;;;;;;;7.74;72.90;100649.38;5088839;28;20048;-58
2021/12/03 06:50:43;;;;;;;25.27;16.85;;;;;;;7.75;72.72;100653.69;5093732;28;20084;-60
2021/12/03 06:53:12;;;;;;;24.85;14.50;;;;;;;7.71;73.00;100666.03;5089222;28;20044;-60
2021/12/03 06:55:52;;;;;;;23.48;15.98;;;;;;;7.72;73.02;100662.53;5098133;28;20052;-60
2021/12/03 06:58:21;;;;;;;24.00;15.30;;;;;;;7.76;73.03;100678.91;5095912;28;20047;-60
2021/12/03 07:00:51;;;;;;;22.88;15.90;;;;;;;7.77;73.09;100680.56;5098575;28;20482;-61
2021/12/03 07:03:18;;;;;;;22.45;14.90;;;;;;;7.79;72.91;100684.81;5097818;28;20048;-61
2021/12/03 07:05:46;;;;;;;18.92;13.32;;;;;;;7.82;73.04;100692.53;5098370;28;20063;-61
2021/12/03 07:08:13;;;;;;;19.98;14.35;;;;;;;7.83;72.83;100690.75;5099177;28;20077;-62
2021/12/03 07:10:40;;;;;;;22.38;14.43;;;;;;;7.83;72.77;100691.59;5098702;28;20499;-61
2021/12/03 07:13:07;;;;;;;19.77;13.45;;;;;;;7.84;72.95;100705.50;5098242;28;20051;-60
2021/12/03 07:15:34;;;;;;;20.33;14.73;;;;;;;7.83;72.67;100702.06;5098499;28;20043;-58
2021/12/03 07:18:02;;;;;;;21.27;13.68;;;;;;;7.88;72.71;100708.84;5099642;28;20045;-58
2021/12/03 07:20:29;;;;;;;19.45;13.30;;;;;;;7.88;72.61;100722.72;5091440;28;20104;-61
2021/12/03 07:22:56;;;;;;;18.33;12.55;;;;;;;7.84;72.72;100722.00;5082243;28;20051;-67
2021/12/03 07:25:23;;;;;;;18.33;13.27;;;;;;;7.85;72.48;100736.78;5096351;28;20126;-61
2021/12/03 07:27:50;;;;;;;17.88;12.43;;;;;;;7.84;72.54;100742.91;5100271;28;20044;-61
2021/12/03 07:30:18;;;;;;;20.63;13.82;;;;;;;7.83;72.27;100743.00;5103086;28;20048;-60
2021/12/03 07:32:46;;;;;;;18.88;12.10;;;;;;;7.85;72.30;100749.00;5101933;28;20047;-59
2021/12/03 07:35:13;;;;;;;20.42;13.43;;;;;;;7.96;71.86;100744.16;5098734;28;20056;-60
2021/12/03 07:37:43;;;;;;;19.90;13.63;;;;;;;7.94;71.76;100750.34;5095285;28;20070;-60
2021/12/03 07:40:11;;;;;;;18.05;12.40;;;;;;;7.96;71.73;100754.59;5092486;28;20044;-60
2021/12/03 07:42:38;;;;;;;19.23;11.90;;;;;;;8.01;71.65;100764.81;5103205;28;20128;-61
2021/12/03 07:45:08;;;;;;;17.60;10.95;;;;;;;7.98;71.63;100764.97;5105524;28;20048;-61
2021/12/03 07:47:36;;;;;;;18.05;11.82;;;;;;;7.98;71.60;100765.81;5099278;28;20404;-60
2021/12/03 07:50:05;;;;;;;20.23;12.40;;;;;;;7.96;71.53;100767.66;5102262;28;20496;-61
2021/12/03 07:52:33;;;;;;;21.77;12.38;;;;;;;8.01;71.41;100770.91;5102933;28;20506;-61
2021/12/03 07:55:00;;;;;;;16.35;11.75;;;;;;;8.09;71.16;100781.00;5099771;28;20059;-61
2021/12/03 07:57:27;;;;;;;19.13;11.30;;;;;;;8.17;70.88;100773.66;5101957;28;20101;-61
2021/12/03 07:59:54;;;;;;;23.83;12.63;;;;;;;8.18;70.83;100777.97;5102000;28;20040;-61
2021/12/03 08:02:20;;;;;;;24.90;12.35;;;;;;;8.18;71.13;100785.81;5100493;27;20063;-60
2021/12/03 08:04:47;;;;;;;19.00;11.85;;;;;;;8.35;70.36;100784.19;5104394;28;20047;-60
2021/12/03 08:07:14;;;;;;;20.35;12.48;;;;;;;8.64;69.69;100784.59;5101883;28;20119;-62
2021/12/03 08:09:41;;;;;;;17.48;11.60;;;;;;;8.94;68.79;100786.69;5091508;28;20066;-60
2021/12/03 08:12:08;;;;;;;21.02;12.55;;;;;;;9.24;67.95;100791.28;5091907;28;20048;-60
2021/12/03 08:14:35;;;;;;;18.08;12.82;;;;;;;9.48;67.35;100797.91;5091795;28;20052;-60
2021/12/03 08:17:02;;;;;;;23.05;13.07;;;;;;;9.63;67.03;100792.81;5091615;28;20052;-61
2021/12/03 08:19:29;;;;;;;17.90;12.93;;;;;;;9.80;66.76;100798.00;5091776;28;20044;-60
2021/12/03 08:21:55;;;;;;;21.75;13.07;;;;;;;9.89;66.60;100804.56;5091555;28;20385;-61
2021/12/03 08:24:22;;;;;;;17.85;12.98;;;;;;;10.19;65.66;100808.22;5099314;28;20039;-60
2021/12/03 08:26:49;;;;;;;18.00;12.77;;;;;;;10.44;65.04;100813.84;5108759;28;20070;-60
2021/12/03 08:29:16;;;;;;;20.23;13.73;;;;;;;10.54;64.91;100818.59;5106074;28;20051;-60
2021/12/03 08:31:45;;;;;;;20.45;13.13;;;;;;;10.63;64.38;100823.34;5108367;28;20443;-60
2021/12/03 08:34:11;;;;;;;20.98;13.75;;;;;;;10.50;64.87;100825.81;5098870;28;20039;-60
2021/12/03 08:36:38;;;;;;;24.58;14.25;;;;;;;10.29;65.60;100833.03;5091014;28;20082;-61
2021/12/03 08:39:07;;;;;;;20.70;14.20;;;;;;;10.13;65.92;100835.63;5090641;28;20048;-61
2021/12/03 08:41:34;;;;;;;21.95;14.30;;;;;;;10.00;66.34;100831.97;5091737;28;20421;-61
2021/12/03 08:44:02;;;;;;;18.70;13.68;;;;;;;9.83;66.63;100838.94;5098939;28;20571;-61
2021/12/03 08:46:33;;;;;;;23.45;13.93;;;;;;;9.58;67.27;100844.59;5099490;28;20052;-60
2021/12/03 08:49:15;;;;;;;23.65;14.52;;;;;;;9.52;67.34;100856.22;5091237;28;20047;-60
2021/12/03 08:56:57;;;;;;;19.40;14.07;;;;;;;9.41;67.68;100853.31;5099226;28;20054;-60
2021/12/03 08:59:24;;;;;;;20.70;14.70;;;;;;;9.42;67.32;100868.94;5100880;28;20552;-60
2021/12/03 09:01:51;;;;;;;23.25;14.18;;;;;;;9.50;67.04;100868.56;5101193;28;20489;-63
2021/12/03 09:04:18;;;;;;;18.60;12.80;;;;;;;9.49;67.00;100872.09;5111260;28;20066;-60
2021/12/03 09:06:45;;;;;;;22.55;13.73;;;;;;;9.53;67.04;100881.50;5111016;28;20454;-60
2021/12/03 09:09:11;;;;;;;22.70;14.82;;;;;;;9.48;67.00;100889.59;5091486;28;20048;-60
2021/12/03 09:11:38;;;;;;;21.58;14.20;;;;;;;9.46;66.91;100895.84;5094947;28;20044;-61
2021/12/03 09:14:25;;;;;;;21.85;13.48;;;;;;;9.57;66.53;100892.66;5098821;28;20051;-60
2021/12/03 09:22:30;;;;;;;25.55;14.20;;;;;;;9.73;65.87;100895.38;5101571;28;20073;-60
2021/12/03 09:24:57;;;;;;;17.63;13.77;;;;;;;9.59;66.14;100911.78;5098408;28;20070;-60
2021/12/03 09:27:24;;;;;;;20.98;13.48;;;;;;;9.67;65.84;100922.72;5101518;28;20470;-60
2021/12/03 09:29:54;;;;;;;24.05;14.90;;;;;;;9.64;65.78;100926.34;5099914;28;20055;-60
2021/12/03 09:32:37;;;;;;;20.30;13.15;;;;;;;9.60;66.01;100923.97;5099738;28;20042;-60
2021/12/03 09:35:07;;;;;;;20.27;13.43;;;;;;;9.41;66.48;100931.88;5100003;28;20122;-69
2021/12/03 09:37:33;;;;;;;27.00;14.13;;;;;;;9.51;66.41;100932.25;5099070;28;20054;-61
2021/12/03 09:40:05;;;;;;;22.92;14.20;;;;;;;9.48;66.19;100933.25;5100566;28;20048;-60
2021/12/03 09:42:37;;;;;;;23.35;14.18;;;;;;;9.51;66.13;100935.75;5099446;28;20048;-61
2021/12/03 09:45:07;;;;;;;21.83;14.93;;;;;;;9.51;66.00;100935.75;5099532;28;20411;-61
2021/12/03 09:47:34;;;;;;;25.17;15.60;;;;;;;9.48;66.09;100930.66;5098821;28;20508;-61
2021/12/03 09:50:04;;;;;;;27.58;15.10;;;;;;;9.52;65.91;100949.69;5106518;28;20051;-61
2021/12/03 09:52:39;;;;;;;25.77;14.85;;;;;;;9.59;65.53;100946.69;5100240;28;20098;-60
2021/12/03 09:55:10;;;;;;;25.10;15.82;;;;;;;9.82;64.81;100949.94;5095260;28;20085;-60
2021/12/03 10:03:02;;;;;;;25.90;15.73;;;;;;;10.38;63.07;100934.84;5089728;28;20130;-61
2021/12/03 10:19:21;;;;;;;23.02;14.60;;;;;;;12.14;58.41;100925.94;5089284;28;20084;-60
2021/12/03 10:22:11;;;;;;;21.42;14.57;;;;;;;12.43;57.38;100924.19;5089525;28;20051;-61
2021/12/03 11:11:51;;;;;;;15.77;10.88;;;;;;;11.72;58.27;100936.28;5108852;28;20094;-61
2021/12/03 12:42:42;;;;;;;9.02;3.45;;;;;;;12.29;47.36;100903.97;5074356;28;20048;-59
2021/12/03 12:56:55;;;;;;;5.35;3.20;;;;;;;12.02;46.89;100896.81;5090754;28;20048;-59
2021/12/03 13:16:41;;;;;;;2.83;1.77;;;;;;;11.59;46.05;100910.69;5048164;28;20114;-59
2021/12/03 13:19:22;;;;;;;3.70;1.77;;;;;;;11.58;45.85;100916.88;5097759;28;20043;-60
2021/12/03 13:33:10;;;;;;;2.97;2.17;;;;;;;11.48;45.17;100915.72;5108044;28;21407;-59
2021/12/03 13:44:53;;;;;;;3.38;2.30;;;;;;;11.47;45.10;100919.28;5090036;28;19950;-59
2021/12/03 14:00:57;;;;;;;3.05;2.20;;;;;;;13.23;41.99;100926.19;5099978;28;20047;-67
2021/12/03 14:37:49;;;;;;;7.78;4.07;;;;;;;15.24;40.17;100961.81;5086363;28;20044;-63
2021/12/03 14:56:44;;;;;;;7.07;4.47;;;;;;;12.81;47.07;100997.31;5090961;28;20488;-64
2021/12/03 14:59:18;;;;;;;7.10;5.88;;;;;;;12.62;47.35;100994.97;5094811;28;20093;-67
2021/12/03 15:02:00;;;;;;;6.22;4.82;;;;;;;12.45;47.98;101003.03;5093718;28;20489;-63
2021/12/03 15:05:31;;;;;;;6.03;3.92;;;;;;;12.22;48.92;101000.84;5092608;28;20067;-64
2021/12/03 15:07:31;;;;;;;4.40;3.30;;;;;;;11.97;49.73;101001.44;5100158;28;20066;-65
2021/12/03 15:10:00;;;;;;;5.10;3.60;;;;;;;11.82;50.38;101000.53;5108823;28;20060;-65
2021/12/03 15:18:37;;;;;;;7.55;2.75;;;;;;;11.48;50.63;101009.47;5088537;28;20127;-65
2021/12/03 15:23:15;;;;;;;5.32;2.80;;;;;;;11.27;50.80;101002.72;5088555;28;20055;-66
2021/12/03 15:31:18;;;;;;;7.47;2.33;;;;;;;11.01;51.46;101001.53;5088326;28;20040;-60
2021/12/03 15:36:18;;;;;;;9.05;3.00;;;;;;;11.13;53.04;101015.75;5088294;28;20056;-60
2021/12/03 16:06:15;;;;;;;9.18;3.50;;;;;;;10.62;55.39;101028.97;5092395;28;20044;-60
2021/12/03 16:08:42;;;;;;;9.43;3.65;;;;;;;10.53;55.12;101032.91;5092516;28;20499;-61
2021/12/03 16:14:22;;;;;;;10.70;4.05;;;;;;;10.35;55.39;101034.69;5091443;28;20044;-59
2021/12/03 16:19:24;;;;;;;10.10;3.67;;;;;;;10.18;55.68;101048.63;5092115;28;20083;-60
2021/12/03 16:24:42;;;;;;;13.80;4.25;;;;;;;10.36;55.94;101062.66;5102019;28;20057;-61
2021/12/03 16:51:56;;;;;;;16.23;7.40;;;;;;;9.27;57.87;101119.31;5079326;28;20043;-59
2021/12/03 16:54:54;;;;;;;18.08;6.85;;;;;;;9.23;57.97;101122.13;5099230;28;20445;-58
2021/12/03 16:57:27;;;;;;;15.20;6.00;;;;;;;9.20;58.10;101123.13;5101494;28;20044;-68
2021/12/03 16:59:56;;;;;;;14.05;6.75;;;;;;;9.18;58.15;101132.84;5101414;28;20498;-58
2021/12/03 17:02:37;;;;;;;13.05;6.53;;;;;;;9.14;58.40;101129.50;5101647;28;20093;-58
2021/12/03 17:10:42;;;;;;;17.58;6.57;;;;;;;9.03;58.90;101150.06;5090468;28;20074;-58
2021/12/03 18:01:07;;;;;;;13.27;7.15;;;;;;;8.56;59.51;101200.88;5090476;28;20167;-58
2021/12/03 18:12:19;;;;;;;35.83;20.85;;;;;;;8.46;59.69;101192.53;5109345;28;20705;-63
2021/12/03 18:48:01;;;;;;;17.25;10.38;;;;;;;8.28;59.74;101212.41;5109020;28;20043;-59
2021/12/03 18:53:23;;;;;;;15.43;7.90;;;;;;;8.22;59.74;101211.81;5109750;28;20057;-59
2021/12/03 18:55:53;;;;;;;16.75;7.82;;;;;;;8.17;59.65;101214.59;5109570;28;20491;-61
2021/12/03 18:58:24;;;;;;;14.02;7.55;;;;;;;8.11;59.78;101214.81;5109874;28;20483;-58
2021/12/03 19:00:53;;;;;;;14.68;8.07;;;;;;;8.05;59.66;101218.53;5109869;28;20040;-59
2021/12/03 19:08:29;;;;;;;20.50;9.60;;;;;;;7.92;59.47;101230.34;5089295;28;20468;-59
2021/12/03 19:11:03;;;;;;;20.52;10.05;;;;;;;7.84;59.53;101236.72;5088701;28;20137;-59